Lake, Michigan
Current Conditions -  °F | °C
As of 5:15 PM on Thursday 18 Dec 2014 (Local Time) from KMOP Reporting Station
Overcast Overcast  
Wind Chill: -5°   Ceiling: 1500
Heat Index: -2°   Visibility: 10mi
Dew Point: -5°   Wind: 5mph
Humidity: 81%   Direction: 340°NNW
Pressure: 30.18"   Gusts: NA
Location:  43.85°N, 85.01°W
Report Text: KMOP 182215Z AUTO 34004KT 10SM OVC015 M02/M05 A3018 RMK AO2 T10201048
Loading
Personal Weather Stations






























Interactive Weather Map New forecast layout! Learn more

10-Day Weather Forecast

Advertisements
Track Severe Weather on mobile